createdAt,value
2023-01-31T00:02:00.082Z,101623.53
2023-01-31T00:04:28.116Z,101631.28
2023-01-31T00:06:55.914Z,101649.94
2023-01-31T00:09:24.374Z,101624.81
2023-01-31T00:11:53.423Z,101646.13
2023-01-31T00:14:22.894Z,101636.81
2023-01-31T00:16:52.666Z,101630.38
2023-01-31T00:19:20.316Z,101656.31
2023-01-31T00:21:48.168Z,101611.69
2023-01-31T00:24:16.719Z,101600.16
2023-01-31T00:26:44.673Z,101652.63
2023-01-31T00:29:12.903Z,101643.50
2023-01-31T00:31:43.011Z,101653.44
2023-01-31T00:34:12.493Z,101582.31
2023-01-31T00:36:40.514Z,101622.81
2023-01-31T00:39:09.810Z,101623.63
2023-01-31T00:41:39.405Z,101638.13
2023-01-31T00:44:07.786Z,101638.31
2023-01-31T00:46:36.809Z,101619.16
2023-01-31T00:49:06.571Z,101656.75
2023-01-31T00:51:34.739Z,101634.94
2023-01-31T00:54:03.537Z,101637.59
2023-01-31T00:56:31.332Z,101625.69
2023-01-31T00:59:00.361Z,101639.84
2023-01-31T01:01:30.380Z,101625.63
2023-01-31T01:03:59.216Z,101627.97
2023-01-31T01:06:29.460Z,101619.06
2023-01-31T01:09:00.320Z,101566.47
2023-01-31T01:11:30.319Z,101633.06
2023-01-31T01:13:59.264Z,101602.38
2023-01-31T01:16:30.074Z,101633.91
2023-01-31T01:18:57.889Z,101599.22
2023-01-31T01:21:27.797Z,101625.28
2023-01-31T01:24:03.280Z,101618.34
2023-01-31T01:26:34.418Z,101617.75
2023-01-31T01:29:04.222Z,101624.97
2023-01-31T01:31:32.578Z,101611.91
2023-01-31T01:34:02.825Z,101574.56
2023-01-31T01:36:34.859Z,101609.81
2023-01-31T01:39:05.432Z,101589.72
2023-01-31T01:41:34.584Z,101625.22
2023-01-31T01:44:05.042Z,101603.88
2023-01-31T01:46:37.018Z,101625.69
2023-01-31T01:49:14.479Z,101629.44
2023-01-31T01:51:44.919Z,101618.50
2023-01-31T01:54:19.814Z,101618.31
2023-01-31T01:56:53.647Z,101620.13
2023-01-31T01:59:26.554Z,101588.53
2023-01-31T02:01:58.503Z,101604.56
2023-01-31T02:04:31.971Z,101611.69
2023-01-31T02:07:02.720Z,101608.31
2023-01-31T02:09:41.051Z,101604.94
2023-01-31T02:12:11.824Z,101596.31
2023-01-31T02:14:39.900Z,101597.25
2023-01-31T02:17:14.159Z,101606.22
2023-01-31T02:19:56.880Z,101568.19
2023-01-31T02:22:31.588Z,101561.91
2023-01-31T02:25:46.977Z,101622.16
2023-01-31T02:34:59.188Z,101616.00
2023-01-31T02:37:36.839Z,101608.03
2023-01-31T07:14:12.212Z,101465.03
2023-01-31T07:16:43.620Z,101472.91
2023-01-31T07:19:12.378Z,101497.72
2023-01-31T07:21:40.447Z,101503.34
2023-01-31T07:24:09.675Z,101507.34
2023-01-31T07:29:31.321Z,101501.47
2023-01-31T07:34:50.923Z,101492.09
2023-01-31T07:37:19.331Z,101506.25
2023-01-31T07:39:48.538Z,101512.22
2023-01-31T07:42:19.406Z,101523.41
2023-01-31T07:44:50.204Z,101514.69
2023-01-31T07:47:20.871Z,101531.50
2023-01-31T07:49:51.129Z,101496.69
2023-01-31T07:52:19.460Z,101519.03
2023-01-31T07:54:49.156Z,101496.19
2023-01-31T07:57:23.047Z,101531.41
2023-01-31T07:59:57.014Z,101495.34
2023-01-31T08:02:42.514Z,101501.63
2023-01-31T08:05:11.387Z,101519.75
2023-01-31T08:07:41.661Z,101515.63
2023-01-31T08:10:17.671Z,101496.00
2023-01-31T08:12:45.828Z,101504.13
2023-01-31T08:15:22.726Z,101503.78
2023-01-31T08:17:54.366Z,101501.63
2023-01-31T08:20:26.125Z,101482.97
2023-01-31T08:22:54.735Z,101478.88
2023-01-31T08:25:27.552Z,101492.53
2023-01-31T08:27:56.065Z,101476.63
2023-01-31T08:30:31.434Z,101487.25
2023-01-31T08:55:00.109Z,101399.25
2023-01-31T08:57:30.239Z,101444.13
2023-01-31T09:00:00.531Z,101459.06
2023-01-31T09:02:28.918Z,101471.28
2023-01-31T09:04:58.556Z,101431.31
2023-01-31T09:07:26.984Z,101476.91
2023-01-31T09:09:55.097Z,101440.00
2023-01-31T09:12:24.335Z,101431.44
2023-01-31T09:14:52.778Z,101435.44
2023-01-31T09:17:20.904Z,101385.50
2023-01-31T09:19:49.250Z,101424.91
2023-01-31T09:22:17.209Z,101433.16
2023-01-31T09:24:46.067Z,101432.19
2023-01-31T09:27:13.868Z,101419.00
2023-01-31T09:29:43.307Z,101440.09
2023-01-31T09:32:11.137Z,101414.75
2023-01-31T09:34:38.907Z,101441.13
2023-01-31T09:37:06.842Z,101422.34
2023-01-31T09:39:34.665Z,101397.00
2023-01-31T09:42:12.118Z,101430.09
2023-01-31T09:44:44.436Z,101394.88
2023-01-31T09:47:19.439Z,101417.78
2023-01-31T09:49:53.864Z,101433.63
2023-01-31T09:55:17.942Z,101454.06
2023-01-31T09:57:54.963Z,101450.44
2023-01-31T10:00:30.603Z,101445.13
2023-01-31T10:03:18.961Z,101446.97
2023-01-31T10:05:52.755Z,101443.38
2023-01-31T10:08:33.160Z,101405.13
2023-01-31T10:11:04.088Z,101425.41
2023-01-31T10:13:37.063Z,101401.03
2023-01-31T10:16:16.345Z,101399.69
2023-01-31T10:18:50.579Z,101382.56
2023-01-31T10:21:21.501Z,101423.75
2023-01-31T10:23:54.474Z,101383.53
2023-01-31T10:26:26.818Z,101411.06
2023-01-31T10:29:00.967Z,101399.69
2023-01-31T10:31:33.804Z,101392.44
2023-01-31T10:34:07.694Z,101377.28
2023-01-31T10:36:39.545Z,101370.22
2023-01-31T10:39:13.566Z,101366.41
2023-01-31T10:41:52.528Z,101377.59
2023-01-31T10:44:25.781Z,101343.50
2023-01-31T10:46:59.537Z,101389.09
2023-01-31T10:49:30.153Z,101397.34
2023-01-31T10:52:14.410Z,101380.19
2023-01-31T10:54:54.556Z,101389.06
2023-01-31T10:57:23.641Z,101355.81
2023-01-31T10:59:52.990Z,101371.44
2023-01-31T11:02:25.293Z,101344.25
2023-01-31T11:04:55.030Z,101345.31
2023-01-31T11:07:23.066Z,101350.88
2023-01-31T11:09:54.689Z,101344.94
2023-01-31T11:12:23.375Z,101349.88
2023-01-31T11:15:08.353Z,101358.28
2023-01-31T11:17:40.412Z,101343.63
2023-01-31T11:20:20.727Z,101348.50
2023-01-31T11:22:49.105Z,101352.66
2023-01-31T11:25:22.710Z,101343.88
2023-01-31T11:27:54.044Z,101340.09
2023-01-31T11:30:27.394Z,101348.91
2023-01-31T11:32:57.544Z,101333.47
2023-01-31T11:35:29.663Z,101330.50
2023-01-31T11:37:59.905Z,101321.31
2023-01-31T11:40:31.490Z,101359.97
2023-01-31T11:43:01.095Z,101312.53
2023-01-31T11:45:31.314Z,101323.97
2023-01-31T11:48:08.623Z,101323.69
2023-01-31T11:50:40.488Z,101294.47
2023-01-31T11:53:18.031Z,101339.91
2023-01-31T11:55:48.019Z,101333.00
2023-01-31T11:58:21.212Z,101330.50
2023-01-31T12:00:58.376Z,101329.34
2023-01-31T12:03:28.457Z,101308.94
2023-01-31T12:06:02.914Z,101322.06
2023-01-31T12:08:33.319Z,101335.03
2023-01-31T12:11:07.227Z,101304.47
2023-01-31T12:13:47.993Z,101313.81
2023-01-31T12:16:19.418Z,101316.97
2023-01-31T12:19:05.356Z,101311.63
2023-01-31T12:21:50.649Z,101269.69
2023-01-31T12:24:32.981Z,101267.19
2023-01-31T12:27:05.863Z,101315.72
2023-01-31T12:30:09.410Z,101317.84
2023-01-31T12:32:51.336Z,101296.00
2023-01-31T12:35:36.415Z,101318.19
2023-01-31T12:38:16.706Z,101313.91
2023-01-31T12:40:53.042Z,101323.13
2023-01-31T12:43:37.017Z,101270.69
2023-01-31T12:46:16.199Z,101327.59
2023-01-31T12:49:21.025Z,101319.13
2023-01-31T12:52:01.422Z,101319.84
2023-01-31T12:54:48.831Z,101323.31
2023-01-31T12:57:31.514Z,101319.97
2023-01-31T13:00:12.028Z,101317.66
2023-01-31T13:02:46.906Z,101305.81
2023-01-31T13:05:28.582Z,101301.81
2023-01-31T13:08:04.073Z,101306.94
2023-01-31T13:10:40.314Z,101260.09
2023-01-31T13:13:19.096Z,101315.84
2023-01-31T13:15:55.129Z,101266.66
2023-01-31T13:18:24.526Z,101296.22
2023-01-31T13:20:58.588Z,101275.50
2023-01-31T13:23:32.312Z,101312.66
2023-01-31T13:26:09.437Z,101306.41
2023-01-31T13:28:44.267Z,101261.09
2023-01-31T13:31:19.471Z,101288.72
2023-01-31T13:33:52.452Z,101317.94
2023-01-31T13:36:26.195Z,101272.28
2023-01-31T13:38:55.712Z,101320.78
2023-01-31T13:44:18.340Z,101312.03
2023-01-31T13:46:53.101Z,101306.94
2023-01-31T13:49:27.120Z,101267.63
2023-01-31T13:51:57.747Z,101303.53
2023-01-31T13:54:31.753Z,101303.88
2023-01-31T13:57:01.687Z,101281.22
2023-01-31T13:59:32.348Z,101316.72
2023-01-31T14:02:01.599Z,101316.91
2023-01-31T14:04:39.113Z,101266.09
2023-01-31T14:07:21.300Z,101300.47
2023-01-31T14:10:38.075Z,101311.97
2023-01-31T14:13:27.677Z,101312.44
2023-01-31T14:15:55.944Z,101311.16
2023-01-31T14:18:47.505Z,101313.28
2023-01-31T14:21:46.676Z,101301.41
2023-01-31T14:24:23.171Z,101309.16
2023-01-31T14:26:55.013Z,101277.38
2023-01-31T14:29:26.112Z,101256.34
2023-01-31T14:31:56.948Z,101237.06
2023-01-31T14:34:26.958Z,101277.44
2023-01-31T14:37:07.350Z,101268.88
2023-01-31T14:40:04.820Z,101262.66
2023-01-31T14:43:05.478Z,101270.34
2023-01-31T14:45:44.983Z,101263.94
2023-01-31T14:48:23.751Z,101281.56
2023-01-31T14:51:08.170Z,101276.38
2023-01-31T14:54:09.721Z,101289.88
2023-01-31T14:56:58.611Z,101294.81
2023-01-31T14:59:31.847Z,101289.88
2023-01-31T15:02:22.363Z,101315.59
2023-01-31T15:04:57.474Z,101278.50
2023-01-31T15:07:26.119Z,101329.09
2023-01-31T15:09:55.384Z,101331.59
2023-01-31T15:12:55.352Z,101337.69
2023-01-31T15:15:29.090Z,101342.59
2023-01-31T15:18:03.593Z,101345.63
2023-01-31T15:20:38.013Z,101341.78
2023-01-31T15:23:09.299Z,101304.81
2023-01-31T15:25:43.580Z,101320.88
2023-01-31T15:28:16.743Z,101347.84
2023-01-31T15:30:46.086Z,101336.78
2023-01-31T15:33:22.588Z,101328.69
2023-01-31T15:35:55.690Z,101332.59
2023-01-31T15:38:31.049Z,101330.81
2023-01-31T15:41:24.260Z,101337.38
2023-01-31T15:43:54.590Z,101317.13
2023-01-31T15:46:26.191Z,101340.47
2023-01-31T15:48:56.273Z,101342.13
2023-01-31T15:51:24.902Z,101351.69
2023-01-31T15:54:03.399Z,101342.13
2023-01-31T15:56:31.613Z,101336.72
2023-01-31T15:58:59.877Z,101351.97
2023-01-31T16:01:31.708Z,101337.56
2023-01-31T16:04:01.865Z,101361.38
2023-01-31T16:06:34.357Z,101288.81
2023-01-31T16:09:05.224Z,101349.16
2023-01-31T16:11:35.940Z,101366.13
2023-01-31T16:14:07.550Z,101350.63
2023-01-31T16:16:37.027Z,101329.00
2023-01-31T16:19:07.203Z,101362.19
2023-01-31T16:21:38.496Z,101361.19
2023-01-31T16:24:15.465Z,101368.88
2023-01-31T16:26:55.800Z,101315.81
2023-01-31T16:29:29.348Z,101338.13
2023-01-31T16:31:57.830Z,101349.16
2023-01-31T16:34:29.849Z,101354.84
2023-01-31T16:37:01.827Z,101361.75
2023-01-31T16:39:39.371Z,101346.88
2023-01-31T16:42:10.087Z,101342.13
2023-01-31T16:44:43.131Z,101378.63
2023-01-31T16:47:32.811Z,101365.47
2023-01-31T16:50:43.031Z,101386.22
2023-01-31T16:53:20.112Z,101382.28
2023-01-31T16:56:07.902Z,101382.63
2023-01-31T16:58:48.082Z,101376.38
2023-01-31T17:01:18.850Z,101361.91
2023-01-31T17:03:49.043Z,101335.09
2023-01-31T17:06:23.450Z,101337.56
2023-01-31T17:08:51.848Z,101357.97
2023-01-31T17:11:40.856Z,101379.00
2023-01-31T17:14:09.449Z,101333.81
2023-01-31T17:16:37.381Z,101367.50
2023-01-31T17:19:05.303Z,101381.00
2023-01-31T17:21:41.421Z,101359.28
2023-01-31T17:24:13.658Z,101379.38
2023-01-31T17:26:42.205Z,101358.50
2023-01-31T17:29:10.060Z,101354.47
2023-01-31T17:31:38.021Z,101366.91
2023-01-31T17:34:07.149Z,101375.97
2023-01-31T17:36:36.509Z,101356.25
2023-01-31T17:39:04.513Z,101371.97
2023-01-31T17:41:35.233Z,101367.50
2023-01-31T17:44:05.161Z,101369.13
2023-01-31T17:46:33.417Z,101345.81
2023-01-31T17:49:01.468Z,101368.13
2023-01-31T17:51:29.266Z,101352.16
2023-01-31T17:53:58.888Z,101361.84
2023-01-31T17:56:27.214Z,101358.09
2023-01-31T17:58:55.415Z,101319.38
2023-01-31T18:01:23.283Z,101313.13
2023-01-31T18:03:51.960Z,101335.28
2023-01-31T18:06:19.847Z,101338.69
2023-01-31T18:08:48.689Z,101333.03
2023-01-31T18:11:19.099Z,101323.78
2023-01-31T18:13:48.186Z,101349.25
2023-01-31T18:16:20.958Z,101354.00
2023-01-31T18:18:49.868Z,101307.66
2023-01-31T18:21:21.506Z,101344.44
2023-01-31T18:23:50.796Z,101336.69
2023-01-31T18:26:21.966Z,101346.91
2023-01-31T18:28:50.249Z,101338.34
2023-01-31T18:31:20.106Z,101286.41
2023-01-31T18:33:49.918Z,101342.28
2023-01-31T18:36:20.230Z,101300.00
2023-01-31T18:38:50.780Z,101323.28
2023-01-31T18:41:22.435Z,101329.75
2023-01-31T18:43:51.171Z,101272.91
2023-01-31T18:46:19.287Z,101334.34
2023-01-31T18:48:47.182Z,101295.25
2023-01-31T18:51:16.800Z,101340.88
2023-01-31T18:53:46.760Z,101336.25
2023-01-31T18:56:17.285Z,101339.72
2023-01-31T18:58:49.302Z,101319.16
2023-01-31T19:01:19.521Z,101311.69
2023-01-31T19:03:50.139Z,101342.56
2023-01-31T19:06:20.783Z,101305.09
2023-01-31T19:08:49.840Z,101339.63
2023-01-31T19:11:18.551Z,101314.56
2023-01-31T19:13:48.429Z,101353.38
2023-01-31T19:16:17.818Z,101367.44
2023-01-31T19:18:45.973Z,101320.78
2023-01-31T19:21:17.756Z,101371.09
2023-01-31T19:23:46.898Z,101349.91
2023-01-31T19:26:16.250Z,101357.63
2023-01-31T19:28:45.874Z,101343.66
2023-01-31T19:31:17.728Z,101369.31
2023-01-31T19:33:49.827Z,101364.56
2023-01-31T19:36:19.164Z,101356.34
2023-01-31T19:38:47.145Z,101387.94
2023-01-31T19:41:19.251Z,101392.06
2023-01-31T19:43:47.181Z,101388.94
2023-01-31T19:46:16.823Z,101378.06
2023-01-31T19:48:44.519Z,101394.03
2023-01-31T19:51:14.567Z,101401.00
2023-01-31T19:53:43.561Z,101350.19
2023-01-31T19:56:12.092Z,101399.69
2023-01-31T19:58:40.023Z,101378.78
2023-01-31T20:01:09.266Z,101379.78
2023-01-31T20:03:39.166Z,101391.63
2023-01-31T20:06:09.263Z,101405.53
2023-01-31T20:08:37.885Z,101392.81
2023-01-31T20:11:07.950Z,101397.59
2023-01-31T20:13:36.956Z,101381.16
2023-01-31T20:16:07.774Z,101355.47
2023-01-31T20:18:36.320Z,101380.47
2023-01-31T20:21:06.675Z,101378.50
2023-01-31T20:23:35.104Z,101398.06
2023-01-31T20:26:03.196Z,101347.06
2023-01-31T20:28:31.450Z,101395.22
2023-01-31T20:31:05.419Z,101387.81
2023-01-31T20:33:33.820Z,101388.13
2023-01-31T20:36:02.589Z,101386.56
2023-01-31T20:38:32.665Z,101346.84
2023-01-31T20:41:00.669Z,101376.44
2023-01-31T20:43:28.741Z,101388.75
2023-01-31T20:46:03.757Z,101381.53
2023-01-31T20:48:31.751Z,101366.91
2023-01-31T20:50:59.892Z,101389.94
2023-01-31T20:53:29.870Z,101378.59
2023-01-31T20:56:01.173Z,101370.47
2023-01-31T20:58:31.494Z,101376.06
2023-01-31T21:01:01.106Z,101361.44
2023-01-31T21:03:30.567Z,101349.47
2023-01-31T21:06:00.532Z,101377.34
2023-01-31T21:08:29.145Z,101361.72
2023-01-31T21:11:00.188Z,101377.34
2023-01-31T21:13:29.225Z,101364.22
2023-01-31T21:15:59.185Z,101344.13
2023-01-31T21:18:29.307Z,101373.06
2023-01-31T21:20:57.969Z,101375.91
2023-01-31T21:23:26.627Z,101378.69
2023-01-31T21:25:54.584Z,101365.47
2023-01-31T21:28:27.276Z,101375.13
2023-01-31T21:31:00.221Z,101362.34
2023-01-31T21:33:28.202Z,101352.84
2023-01-31T21:35:58.125Z,101335.56
2023-01-31T21:38:26.701Z,101355.00
2023-01-31T21:41:15.110Z,101371.00
2023-01-31T21:43:43.420Z,101353.88
2023-01-31T21:46:11.889Z,101363.41
2023-01-31T21:48:40.641Z,101364.41
2023-01-31T21:51:11.031Z,101360.94
2023-01-31T21:53:39.844Z,101359.31
2023-01-31T21:56:09.776Z,101347.78
2023-01-31T21:58:38.827Z,101354.19
2023-01-31T22:01:10.799Z,101329.34
2023-01-31T22:06:36.605Z,101339.84
2023-01-31T22:09:05.279Z,101329.09
2023-01-31T22:11:35.307Z,101336.59
2023-01-31T22:14:07.965Z,101323.19
2023-01-31T22:16:37.674Z,101321.69
2023-01-31T22:19:05.743Z,101313.97
2023-01-31T22:21:36.181Z,101299.34
2023-01-31T22:24:06.571Z,101304.75
2023-01-31T22:26:36.207Z,101277.69
2023-01-31T22:29:05.502Z,101313.03
2023-01-31T22:31:34.038Z,101295.94
2023-01-31T22:34:05.076Z,101312.56
2023-01-31T22:36:33.013Z,101284.50
2023-01-31T22:39:01.481Z,101290.44
2023-01-31T22:41:30.778Z,101272.34
2023-01-31T22:43:58.929Z,101305.53
2023-01-31T22:46:29.254Z,101319.72
2023-01-31T22:48:57.186Z,101282.25
2023-01-31T22:51:29.468Z,101270.41
2023-01-31T22:53:59.526Z,101301.63
2023-01-31T22:56:29.577Z,101321.06
2023-01-31T22:58:58.504Z,101294.59
2023-01-31T23:01:29.470Z,101274.38
2023-01-31T23:03:58.898Z,101315.97
2023-01-31T23:06:29.984Z,101306.09
2023-01-31T23:08:58.723Z,101294.41
2023-01-31T23:11:27.305Z,101309.84
2023-01-31T23:13:55.863Z,101302.66
2023-01-31T23:16:45.970Z,101307.50
2023-01-31T23:19:14.999Z,101266.38
2023-01-31T23:21:45.395Z,101279.41
2023-01-31T23:24:14.595Z,101284.50
2023-01-31T23:26:43.658Z,101288.09
2023-01-31T23:29:11.807Z,101310.44
2023-01-31T23:31:40.032Z,101318.19
2023-01-31T23:34:11.348Z,101308.19
2023-01-31T23:36:39.240Z,101305.16
2023-01-31T23:39:08.653Z,101309.09
2023-01-31T23:41:37.159Z,101265.38
2023-01-31T23:44:05.069Z,101303.00
2023-01-31T23:46:33.200Z,101281.09
2023-01-31T23:49:01.762Z,101248.34
2023-01-31T23:51:31.374Z,101277.44
2023-01-31T23:53:59.012Z,101304.75
2023-01-31T23:56:29.219Z,101266.28
2023-01-31T23:58:57.324Z,101236.38
